Time;durP1;ratioP1;P1;durP2;ratioP2;P2;SDS_P1;SDS_P2;PMS_P1;PMS_P2;Temp;Humidity;BMP_temperature;BMP_pressure;BME280_temperature;BME280_humidity;BME280_pressure;Samples;Min_cycle;Max_cycle;Signal;HPM_P1;HPM_P2
2021/08/04 00:01:54;;;;;;;4.03;2.28;;;;;;;21.26;60.75;101108.91;4933378;28;20122;-71
2021/08/04 00:04:19;;;;;;;3.78;2.33;;;;;;;21.26;60.82;101116.91;4935330;29;20035;-66
2021/08/04 00:06:45;;;;;;;3.42;2.38;;;;;;;21.26;60.73;101108.91;4953590;29;20042;-67
2021/08/04 00:09:10;;;;;;;3.33;2.25;;;;;;;21.26;60.75;101104.38;4949530;28;20088;-68
2021/08/04 00:11:36;;;;;;;3.83;2.20;;;;;;;21.25;60.72;101108.06;4934473;29;20793;-67
2021/08/04 00:14:02;;;;;;;3.70;2.53;;;;;;;21.25;60.59;101109.91;4952667;28;20093;-67
2021/08/04 00:16:28;;;;;;;4.03;2.33;;;;;;;21.26;60.51;101104.38;4935290;29;20445;-67
2021/08/04 00:18:54;;;;;;;3.08;2.15;;;;;;;21.26;60.66;101111.56;4962923;28;20073;-71
2021/08/04 00:21:19;;;;;;;4.22;2.38;;;;;;;21.27;60.88;101115.88;4969124;28;20043;-66
2021/08/04 00:23:45;;;;;;;3.63;1.98;;;;;;;21.25;60.89;101109.91;4956582;28;20119;-66
2021/08/04 00:26:10;;;;;;;3.67;2.22;;;;;;;21.26;60.89;101119.56;4966106;28;20505;-66
2021/08/04 00:28:36;;;;;;;3.80;2.40;;;;;;;21.26;61.07;101115.06;4969207;28;20081;-67
2021/08/04 00:31:02;;;;;;;3.80;2.35;;;;;;;21.26;60.64;101116.91;4964998;28;20435;-66
2021/08/04 00:33:27;;;;;;;3.80;2.30;;;;;;;21.26;60.65;101120.38;4968535;28;20125;-68
2021/08/04 00:35:52;;;;;;;3.63;2.25;;;;;;;21.26;61.02;101117.72;4956748;28;20039;-68
2021/08/04 00:38:19;;;;;;;3.00;2.00;;;;;;;21.26;60.82;101111.56;4968193;28;20035;-69
2021/08/04 00:40:44;;;;;;;4.07;2.10;;;;;;;21.26;61.06;101109.72;4949702;28;20468;-65
2021/08/04 00:43:10;;;;;;;3.70;2.20;;;;;;;21.25;60.76;101110.75;4949456;28;20046;-65
2021/08/04 00:45:36;;;;;;;7.13;2.58;;;;;;;21.26;60.79;101115.06;4968701;28;20637;-67
2021/08/04 00:48:03;;;;;;;6.88;2.78;;;;;;;21.27;60.68;101121.22;4959138;28;20031;-67
2021/08/04 00:50:29;;;;;;;4.25;2.30;;;;;;;21.27;60.82;101116.69;4950525;28;20034;-66
2021/08/04 00:52:54;;;;;;;4.85;2.30;;;;;;;21.27;61.12;101122.03;4948034;28;20501;-68
2021/08/04 00:55:20;;;;;;;6.80;2.55;;;;;;;21.27;61.26;101114.03;4967585;28;20050;-72
2021/08/04 00:57:45;;;;;;;3.22;2.22;;;;;;;21.28;61.11;101118.34;4956640;28;20544;-66
2021/08/04 01:00:11;;;;;;;7.50;2.92;;;;;;;21.27;61.14;101116.69;4956143;28;20041;-67
2021/08/04 01:02:46;;;;;;;7.30;2.63;;;;;;;21.28;61.13;101114.84;4943470;28;20040;-67
2021/08/04 01:05:21;;;;;;;4.60;2.58;;;;;;;21.27;61.05;101119.38;4952072;28;20039;-67
2021/08/04 01:08:21;;;;;;;3.67;2.30;;;;;;;21.22;61.03;101114.59;4939602;28;20043;-66
2021/08/04 01:10:52;;;;;;;5.20;2.28;;;;;;;21.25;61.05;101115.25;4936855;28;20058;-66
2021/08/04 01:13:23;;;;;;;3.75;2.40;;;;;;;21.26;61.10;101111.56;4951959;28;20066;-69
2021/08/04 01:16:02;;;;;;;3.40;2.13;;;;;;;21.26;60.99;101114.22;4954147;28;20035;-68
2021/08/04 01:18:36;;;;;;;3.50;1.98;;;;;;;21.25;60.61;101108.06;4962829;28;20061;-67
2021/08/04 01:21:01;;;;;;;5.53;2.35;;;;;;;21.26;60.88;101107.03;4956856;28;20030;-68
2021/08/04 01:23:38;;;;;;;5.40;2.58;;;;;;;21.23;60.94;101105.56;4943323;28;20182;-66
2021/08/04 01:26:11;;;;;;;5.82;2.15;;;;;;;21.24;60.68;101106.41;4961257;28;20046;-66
2021/08/04 01:28:45;;;;;;;4.78;2.30;;;;;;;21.23;60.46;101102.09;4967170;28;20061;-67
2021/08/04 01:31:13;;;;;;;3.95;2.05;;;;;;;21.26;60.43;101107.03;4961489;28;20035;-66
2021/08/04 01:33:44;;;;;;;3.17;2.20;;;;;;;21.25;60.57;101101.91;4949560;28;20030;-67
2021/08/04 01:36:10;;;;;;;5.43;2.50;;;;;;;21.25;60.32;101094.72;4962398;28;20050;-66
2021/08/04 01:38:37;;;;;;;4.30;2.33;;;;;;;21.26;60.67;101092.88;4951460;28;20089;-66
2021/08/04 01:41:05;;;;;;;4.53;2.40;;;;;;;21.26;60.22;101095.56;4962806;28;20102;-68
2021/08/04 01:43:32;;;;;;;3.97;2.35;;;;;;;21.25;60.42;101086.72;4967173;28;20056;-68
2021/08/04 01:45:58;;;;;;;5.57;2.70;;;;;;;21.26;60.08;101087.56;4964455;28;20760;-67
2021/08/04 01:48:25;;;;;;;4.28;2.30;;;;;;;21.25;60.13;101088.56;4955466;28;20045;-71
2021/08/04 01:50:59;;;;;;;4.15;2.15;;;;;;;21.23;60.09;101084.22;4967419;28;20023;-66
2021/08/04 01:53:26;;;;;;;4.70;2.10;;;;;;;21.26;60.52;101084.88;4964738;28;20165;-68
2021/08/04 01:55:51;;;;;;;4.22;2.00;;;;;;;21.25;60.58;101084.06;4967739;28;20058;-68
2021/08/04 01:58:17;;;;;;;4.28;2.20;;;;;;;21.25;60.52;101088.56;4954468;28;20039;-67
2021/08/04 02:00:42;;;;;;;4.25;2.25;;;;;;;21.25;60.27;101084.06;4956879;28;20040;-66
2021/08/04 02:03:08;;;;;;;4.38;2.15;;;;;;;21.26;60.28;101087.56;4952288;28;20035;-69
2021/08/04 02:05:33;;;;;;;4.47;2.22;;;;;;;21.25;60.38;101085.91;4950605;28;20497;-66
2021/08/04 02:08:20;;;;;;;3.35;2.08;;;;;;;21.20;60.13;101087.31;4948414;28;20362;-71
2021/08/04 02:11:04;;;;;;;3.78;2.33;;;;;;;21.22;60.21;101087.09;4948226;28;20042;-66
2021/08/04 02:13:35;;;;;;;3.47;2.30;;;;;;;21.23;60.05;101089.56;4954694;28;20035;-66
2021/08/04 02:16:23;;;;;;;4.45;2.17;;;;;;;21.20;60.23;101089.16;4954258;28;20046;-67
2021/08/04 02:19:27;;;;;;;3.30;2.10;;;;;;;21.22;60.06;101085.25;4953178;28;20110;-67
2021/08/04 02:22:05;;;;;;;3.20;2.05;;;;;;;21.23;60.03;101086.06;4896712;29;20120;-67
2021/08/04 02:24:33;;;;;;;3.80;2.22;;;;;;;21.23;59.93;101084.22;4965209;28;20026;-66
2021/08/04 02:27:01;;;;;;;3.50;2.08;;;;;;;21.24;60.00;101087.72;4958831;28;20062;-66
2021/08/04 02:29:32;;;;;;;5.35;2.17;;;;;;;21.23;59.77;101091.41;4965176;28;20034;-71
2021/08/04 02:31:58;;;;;;;4.07;2.40;;;;;;;21.25;59.74;101093.91;4955772;28;20516;-66
2021/08/04 02:34:24;;;;;;;3.33;2.25;;;;;;;21.23;59.79;101086.91;4953184;28;20179;-67
2021/08/04 02:36:49;;;;;;;2.90;2.20;;;;;;;21.23;60.00;101088.75;4954503;28;20077;-68
2021/08/04 02:39:15;;;;;;;5.20;2.10;;;;;;;21.22;60.19;101090.59;4930237;28;20397;-66
2021/08/04 02:41:42;;;;;;;3.83;2.30;;;;;;;21.23;60.09;101086.06;4937237;29;20023;-66
2021/08/04 02:44:08;;;;;;;3.20;2.08;;;;;;;21.23;59.96;101078.91;4954720;28;20054;-73
2021/08/04 02:46:34;;;;;;;3.50;2.05;;;;;;;21.23;60.38;101081.56;4924164;29;20031;-66
2021/08/04 02:49:00;;;;;;;2.72;1.90;;;;;;;21.23;59.91;101078.06;4937240;29;20046;-68
2021/08/04 02:51:28;;;;;;;4.85;2.30;;;;;;;21.23;60.28;101075.41;4950503;29;20031;-68
2021/08/04 02:53:55;;;;;;;2.53;1.90;;;;;;;21.23;59.89;101072.75;4947626;29;20043;-68
2021/08/04 02:56:20;;;;;;;3.13;2.17;;;;;;;21.23;60.30;101070.06;4953322;29;20610;-66
2021/08/04 02:58:45;;;;;;;5.57;2.40;;;;;;;21.23;60.31;101078.06;4954449;29;20130;-66
2021/08/04 03:01:11;;;;;;;3.03;2.00;;;;;;;21.23;60.15;101078.91;4929226;29;20478;-67
2021/08/04 03:03:36;;;;;;;4.03;2.28;;;;;;;21.23;60.15;101075.41;4953364;29;20050;-67
2021/08/04 03:06:03;;;;;;;3.03;1.98;;;;;;;21.23;60.26;101073.56;4954136;28;20489;-66
2021/08/04 03:08:28;;;;;;;3.17;1.80;;;;;;;21.23;60.28;101068.22;4953060;29;20489;-68
2021/08/04 03:10:53;;;;;;;3.47;2.10;;;;;;;21.23;60.45;101067.41;4953355;29;20038;-67
2021/08/04 03:13:19;;;;;;;3.05;1.90;;;;;;;21.24;60.22;101077.03;4951383;29;20035;-68
2021/08/04 03:15:45;;;;;;;3.85;2.10;;;;;;;21.23;60.22;101073.56;4954150;29;20067;-67
2021/08/04 03:18:10;;;;;;;3.60;2.00;;;;;;;21.24;60.36;101074.38;4954167;29;20067;-66
2021/08/04 03:20:36;;;;;;;3.05;2.00;;;;;;;21.23;60.28;101072.75;4953315;29;20034;-67
2021/08/04 03:23:01;;;;;;;3.30;1.73;;;;;;;21.22;60.28;101063.91;4953212;28;20039;-68
2021/08/04 03:25:26;;;;;;;3.53;2.00;;;;;;;21.23;60.15;101065.56;4934154;29;20067;-68
2021/08/04 03:27:52;;;;;;;3.22;1.95;;;;;;;21.23;60.27;101065.56;4953727;29;20042;-67
2021/08/04 03:30:17;;;;;;;3.92;2.47;;;;;;;21.22;60.33;101068.44;4936077;29;20150;-66
2021/08/04 03:32:43;;;;;;;5.13;2.28;;;;;;;21.23;60.15;101065.56;4953627;29;20043;-68
2021/08/04 03:35:10;;;;;;;3.97;2.17;;;;;;;21.22;60.31;101068.44;4953671;29;20031;-67
2021/08/04 03:37:35;;;;;;;2.72;1.75;;;;;;;21.23;60.00;101072.75;4951467;29;20046;-68
2021/08/04 03:40:02;;;;;;;3.15;2.03;;;;;;;21.23;59.98;101078.06;4935411;29;20039;-67
2021/08/04 03:42:27;;;;;;;3.85;2.13;;;;;;;21.23;59.87;101080.75;4952514;29;20103;-66
2021/08/04 03:44:53;;;;;;;5.28;2.47;;;;;;;21.22;60.04;101076.44;4952994;29;20671;-66
2021/08/04 03:47:18;;;;;;;2.90;2.10;;;;;;;21.22;60.12;101079.09;4952845;28;20475;-67
2021/08/04 03:49:44;;;;;;;2.72;1.80;;;;;;;21.21;60.13;101075.59;4953288;29;20043;-66
2021/08/04 03:52:10;;;;;;;3.72;1.90;;;;;;;21.22;59.92;101085.25;4953664;29;20481;-67
2021/08/04 03:54:35;;;;;;;3.20;1.85;;;;;;;21.22;59.82;101079.09;4952488;29;20043;-66
2021/08/04 03:57:01;;;;;;;3.75;2.00;;;;;;;21.22;59.69;101079.09;4953868;29;20032;-67
2021/08/04 03:59:26;;;;;;;3.65;2.10;;;;;;;21.21;59.96;101070.28;4952003;29;20039;-69
2021/08/04 04:01:52;;;;;;;3.53;1.98;;;;;;;21.22;60.16;101079.09;4950904;29;20043;-66
2021/08/04 04:04:17;;;;;;;3.92;2.05;;;;;;;21.21;59.89;101086.28;4952238;29;20122;-68
2021/08/04 04:06:43;;;;;;;3.13;2.10;;;;;;;21.21;59.91;101085.47;4934859;29;20070;-67
2021/08/04 04:09:08;;;;;;;2.72;1.85;;;;;;;21.20;59.90;101073.97;4951517;29;20038;-69
2021/08/04 04:11:36;;;;;;;3.10;1.83;;;;;;;21.21;59.70;101085.47;4952932;29;20074;-73
2021/08/04 04:14:02;;;;;;;2.63;1.85;;;;;;;21.21;59.99;101088.13;4952563;29;20047;-71
2021/08/04 04:16:27;;;;;;;2.70;1.98;;;;;;;21.21;59.97;101088.13;4935219;29;20039;-67
2021/08/04 04:18:52;;;;;;;2.50;1.73;;;;;;;21.21;59.79;101091.63;4952276;29;20063;-66
2021/08/04 04:21:18;;;;;;;4.15;2.10;;;;;;;21.21;59.75;101090.78;4952270;29;20037;-67
2021/08/04 04:23:44;;;;;;;2.67;2.00;;;;;;;21.20;59.67;101089.16;4934704;29;20120;-66
2021/08/04 04:26:09;;;;;;;2.83;1.88;;;;;;;21.20;59.32;101081.97;4951901;28;20055;-68
2021/08/04 04:28:35;;;;;;;4.07;2.03;;;;;;;21.21;59.71;101090.78;4951991;28;20043;-72
2021/08/04 04:31:00;;;;;;;4.07;2.17;;;;;;;21.21;59.78;101093.47;4952703;29;20032;-66
2021/08/04 04:33:26;;;;;;;3.42;2.08;;;;;;;21.20;59.44;101094.50;4934557;29;20232;-66
2021/08/04 04:35:52;;;;;;;3.42;1.73;;;;;;;21.20;59.51;101094.50;4952226;29;20070;-67
2021/08/04 04:38:17;;;;;;;3.33;1.90;;;;;;;21.20;59.69;101089.16;4952153;29;20047;-67
2021/08/04 04:40:43;;;;;;;4.15;2.20;;;;;;;21.20;59.66;101095.31;4933579;29;20047;-66
2021/08/04 04:43:08;;;;;;;2.10;1.63;;;;;;;21.19;59.54;101092.84;4935394;29;20043;-67
2021/08/04 04:45:34;;;;;;;3.45;2.05;;;;;;;21.19;59.75;101091.00;4952741;29;20366;-69
2021/08/04 04:47:59;;;;;;;3.30;2.10;;;;;;;21.20;59.42;101097.16;4951984;29;20473;-68
2021/08/04 04:50:24;;;;;;;2.85;1.90;;;;;;;21.19;59.56;101099.00;4951875;29;20512;-66
2021/08/04 04:52:50;;;;;;;3.55;2.00;;;;;;;21.19;59.47;101092.84;4951709;29;20039;-66
2021/08/04 04:55:15;;;;;;;3.10;2.05;;;;;;;21.19;59.13;101095.50;4951731;29;20036;-67
2021/08/04 04:57:41;;;;;;;2.67;1.85;;;;;;;21.20;59.30;101107.81;4951670;29;20046;-68
2021/08/04 05:00:07;;;;;;;2.80;1.88;;;;;;;21.19;59.57;101106.19;4951813;29;20065;-68
2021/08/04 05:02:39;;;;;;;2.55;1.80;;;;;;;21.18;59.46;101105.38;4951514;29;20046;-66
2021/08/04 05:05:07;;;;;;;2.97;1.95;;;;;;;21.19;59.32;101100.84;4952073;29;20046;-67
2021/08/04 05:07:32;;;;;;;2.80;1.98;;;;;;;21.17;59.35;101103.72;4952242;29;20066;-66
2021/08/04 05:09:58;;;;;;;2.97;1.90;;;;;;;21.18;59.62;101102.69;4950484;29;20103;-66
2021/08/04 05:12:23;;;;;;;2.72;2.00;;;;;;;21.18;59.67;101097.34;4951921;29;20035;-67
2021/08/04 05:14:49;;;;;;;2.97;1.98;;;;;;;21.18;59.63;101100.03;4951235;29;20417;-68
2021/08/04 05:17:14;;;;;;;2.55;1.83;;;;;;;21.18;59.42;101096.53;4934839;29;20043;-66
2021/08/04 05:19:41;;;;;;;2.83;1.90;;;;;;;21.19;59.73;101093.66;4951053;29;20039;-67
2021/08/04 05:22:07;;;;;;;3.33;2.20;;;;;;;21.18;59.48;101093.88;4951854;29;20039;-68
2021/08/04 05:24:32;;;;;;;2.47;1.98;;;;;;;21.18;59.53;101096.53;4933725;29;20046;-66
2021/08/04 05:26:58;;;;;;;2.97;1.90;;;;;;;21.18;59.42;101092.03;4950270;28;20464;-66
2021/08/04 05:29:23;;;;;;;3.10;2.00;;;;;;;21.18;59.77;101091.19;4934655;29;20141;-68
2021/08/04 05:31:49;;;;;;;2.92;1.95;;;;;;;21.18;59.76;101081.34;4934267;29;20065;-67
2021/08/04 05:34:16;;;;;;;2.28;1.63;;;;;;;21.18;59.53;101075.19;4951653;29;20039;-66
2021/08/04 05:36:42;;;;;;;3.72;1.77;;;;;;;21.18;59.98;101077.88;4951217;29;20062;-67
2021/08/04 05:39:07;;;;;;;3.92;1.98;;;;;;;21.18;59.67;101072.53;4950039;28;20421;-69
2021/08/04 05:41:33;;;;;;;2.92;1.90;;;;;;;21.17;59.82;101071.72;4951335;29;20039;-66
2021/08/04 05:43:58;;;;;;;3.63;2.20;;;;;;;21.17;59.66;101082.38;4951015;29;20043;-67
2021/08/04 05:46:24;;;;;;;2.92;1.90;;;;;;;21.17;59.89;101073.56;4951714;29;20028;-67
2021/08/04 05:48:49;;;;;;;3.42;1.67;;;;;;;21.18;59.84;101080.53;4950796;29;20105;-68
2021/08/04 05:51:15;;;;;;;2.17;1.65;;;;;;;21.18;59.50;101078.69;4951289;28;20035;-66
2021/08/04 05:53:40;;;;;;;2.30;1.75;;;;;;;21.17;59.45;101077.03;4951106;29;20061;-66
2021/08/04 05:56:06;;;;;;;3.40;2.20;;;;;;;21.18;59.50;101072.53;4950751;29;20039;-67
2021/08/04 05:58:31;;;;;;;3.10;1.77;;;;;;;21.17;59.79;101079.72;4918211;29;20039;-67
2021/08/04 06:00:56;;;;;;;2.70;1.77;;;;;;;21.18;59.97;101091.19;4945582;29;20039;-67
2021/08/04 06:03:22;;;;;;;3.33;2.10;;;;;;;21.17;59.86;101087.72;4951227;29;20031;-67
2021/08/04 06:05:47;;;;;;;2.83;2.00;;;;;;;21.17;59.57;101082.38;4925232;29;20046;-66
2021/08/04 06:08:13;;;;;;;4.20;2.08;;;;;;;21.17;59.54;101084.22;4950831;29;20042;-66
2021/08/04 06:10:38;;;;;;;2.67;1.67;;;;;;;21.17;59.62;101084.22;4951281;29;20042;-67
2021/08/04 06:13:04;;;;;;;2.70;1.73;;;;;;;21.16;59.92;101088.75;4950054;29;20095;-67
2021/08/04 06:15:29;;;;;;;3.03;1.70;;;;;;;21.17;59.89;101087.72;4951311;29;20098;-66
2021/08/04 06:17:54;;;;;;;3.10;1.98;;;;;;;21.17;59.55;101089.56;4950885;29;20742;-67
2021/08/04 06:20:20;;;;;;;2.67;2.00;;;;;;;21.16;59.73;101088.75;4933536;29;20032;-67
2021/08/04 06:22:45;;;;;;;2.08;1.58;;;;;;;21.17;59.58;101085.03;4938420;28;20114;-67
2021/08/04 06:25:12;;;;;;;2.92;1.80;;;;;;;21.17;59.69;101084.22;4929315;29;20059;-66
2021/08/04 06:27:37;;;;;;;2.53;1.85;;;;;;;21.17;59.36;101081.56;4950278;29;20043;-66
2021/08/04 06:30:04;;;;;;;3.22;1.90;;;;;;;21.16;59.60;101082.59;4950888;29;20050;-72
2021/08/04 06:32:29;;;;;;;3.22;1.98;;;;;;;21.17;59.89;101084.22;4940414;29;20035;-67
2021/08/04 06:34:55;;;;;;;3.40;1.80;;;;;;;21.15;59.43;101078.28;4951119;29;20047;-66
2021/08/04 06:37:20;;;;;;;2.78;1.98;;;;;;;21.15;59.84;101078.28;4946910;29;20042;-66
2021/08/04 06:39:46;;;;;;;2.75;1.67;;;;;;;21.16;59.47;101080.75;4932912;29;20050;-66
2021/08/04 06:42:12;;;;;;;2.60;1.80;;;;;;;21.16;59.56;101079.91;4932727;29;20043;-69
2021/08/04 06:44:38;;;;;;;3.00;1.85;;;;;;;21.15;59.41;101081.75;4934003;29;20063;-66
2021/08/04 06:47:04;;;;;;;3.08;1.83;;;;;;;21.16;59.86;101082.59;4951185;29;20074;-71
2021/08/04 06:49:29;;;;;;;2.85;2.08;;;;;;;21.16;59.17;101085.25;4948382;29;20035;-68
2021/08/04 06:51:55;;;;;;;3.05;2.00;;;;;;;21.16;59.71;101088.75;4941850;29;20046;-66
2021/08/04 06:54:21;;;;;;;2.90;1.80;;;;;;;21.16;59.49;101077.25;4949380;29;20035;-66
2021/08/04 06:56:46;;;;;;;2.33;1.60;;;;;;;21.15;59.82;101071.09;4934752;29;20761;-67
2021/08/04 06:59:11;;;;;;;3.42;1.70;;;;;;;21.16;59.60;101077.25;4953411;29;20039;-67
2021/08/04 07:01:37;;;;;;;2.53;1.77;;;;;;;21.16;59.83;101077.25;4931002;29;20074;-67
2021/08/04 07:04:02;;;;;;;2.30;1.63;;;;;;;21.16;59.82;101077.25;4952791;29;20102;-66
2021/08/04 07:06:28;;;;;;;3.75;2.00;;;;;;;21.15;59.82;101075.59;4954154;29;20035;-66
2021/08/04 07:08:54;;;;;;;4.57;1.90;;;;;;;21.16;59.63;101075.41;4954116;29;20046;-66
2021/08/04 07:11:22;;;;;;;2.58;1.75;;;;;;;21.16;59.47;101075.41;4952912;29;20202;-66
2021/08/04 07:13:49;;;;;;;2.33;1.75;;;;;;;21.16;59.68;101074.56;4953957;29;20377;-66
2021/08/04 07:16:17;;;;;;;3.72;1.75;;;;;;;21.15;59.65;101079.09;4953548;29;20066;-66
2021/08/04 07:18:44;;;;;;;2.58;1.73;;;;;;;21.16;59.58;101082.59;4954451;29;20042;-70
2021/08/04 07:21:11;;;;;;;3.50;2.25;;;;;;;21.15;59.47;101081.75;4953441;29;20465;-67
2021/08/04 07:23:37;;;;;;;3.35;2.10;;;;;;;21.16;59.39;101082.59;4934535;29;20051;-67
2021/08/04 07:26:02;;;;;;;3.17;1.83;;;;;;;21.16;59.60;101077.25;4953584;29;20139;-66
2021/08/04 07:28:28;;;;;;;2.97;1.80;;;;;;;21.16;59.52;101078.06;4936204;29;20043;-66
2021/08/04 07:30:53;;;;;;;2.70;1.80;;;;;;;21.16;59.67;101075.41;4953699;29;20046;-66
2021/08/04 07:33:19;;;;;;;3.22;1.63;;;;;;;21.17;59.71;101070.88;4953874;29;20035;-67
2021/08/04 07:35:44;;;;;;;3.25;2.15;;;;;;;21.18;59.30;101080.53;4953082;29;20035;-66
2021/08/04 07:38:10;;;;;;;2.65;1.60;;;;;;;21.17;59.40;101076.22;4953468;29;20090;-69
2021/08/04 07:40:35;;;;;;;2.70;1.80;;;;;;;21.17;59.61;101069.03;4952948;29;20114;-66
2021/08/04 07:43:01;;;;;;;2.55;1.63;;;;;;;21.18;59.62;101069.84;4953258;29;20037;-67
2021/08/04 07:45:26;;;;;;;3.22;1.95;;;;;;;21.18;59.67;101076.00;4944658;29;20073;-68
2021/08/04 07:47:51;;;;;;;4.40;2.35;;;;;;;21.18;59.46;101069.84;4951637;29;20067;-69
2021/08/04 07:50:17;;;;;;;3.30;1.98;;;;;;;21.18;59.72;101075.19;4935920;29;20063;-69
2021/08/04 07:52:42;;;;;;;6.28;2.30;;;;;;;21.17;59.67;101065.56;4952982;29;20035;-68
2021/08/04 07:55:08;;;;;;;6.32;2.30;;;;;;;21.17;59.38;101069.03;4934909;29;20042;-68
2021/08/04 07:57:34;;;;;;;6.60;2.88;;;;;;;21.18;59.72;101069.84;4952987;29;20094;-71
2021/08/04 07:59:59;;;;;;;5.68;2.35;;;;;;;21.17;59.80;101070.88;4926861;29;20481;-69
2021/08/04 08:02:25;;;;;;;5.20;2.63;;;;;;;21.17;59.29;101074.38;4934257;29;20035;-69
2021/08/04 08:04:51;;;;;;;9.15;2.15;;;;;;;21.16;59.49;101071.91;4954058;29;20094;-68
2021/08/04 08:07:16;;;;;;;5.05;2.25;;;;;;;21.16;59.65;101071.91;4963817;29;20049;-67
2021/08/04 08:09:42;;;;;;;6.60;3.13;;;;;;;21.16;60.03;101078.06;4950625;28;20043;-67
2021/08/04 08:12:08;;;;;;;6.45;2.50;;;;;;;21.17;60.32;101077.03;4952676;29;20512;-66
2021/08/04 08:14:34;;;;;;;5.68;2.65;;;;;;;21.17;60.36;101079.72;4952357;29;20531;-66
2021/08/04 08:17:00;;;;;;;4.85;2.17;;;;;;;21.19;60.31;101082.19;4953067;29;20051;-68
2021/08/04 08:19:25;;;;;;;9.18;2.78;;;;;;;21.18;60.36;101086.69;4932748;29;20039;-67
2021/08/04 08:21:51;;;;;;;8.85;2.55;;;;;;;21.19;60.86;101088.34;4949689;29;20039;-66
2021/08/04 08:24:17;;;;;;;6.95;2.30;;;;;;;21.19;60.57;101083.00;4943726;29;20035;-67
2021/08/04 08:26:43;;;;;;;6.38;2.40;;;;;;;21.20;60.41;101081.16;4942380;28;20055;-66
2021/08/04 08:29:09;;;;;;;5.35;3.00;;;;;;;21.18;60.04;101085.88;4951001;29;20472;-66
2021/08/04 08:31:36;;;;;;;6.32;2.63;;;;;;;21.17;59.70;101084.22;4952694;29;20094;-66
2021/08/04 08:34:03;;;;;;;11.23;3.33;;;;;;;21.15;59.81;101087.09;4953031;28;20088;-68
2021/08/04 08:36:30;;;;;;;16.73;4.75;;;;;;;21.16;59.84;101093.25;4951104;29;20042;-67
2021/08/04 08:38:57;;;;;;;7.40;3.72;;;;;;;21.15;60.03;101086.28;4934833;29;20122;-66
2021/08/04 08:41:23;;;;;;;11.65;4.05;;;;;;;21.15;59.76;101084.44;4934797;29;20046;-67
2021/08/04 08:43:49;;;;;;;9.52;3.47;;;;;;;21.15;59.63;101083.59;4952884;29;20046;-67
2021/08/04 08:46:15;;;;;;;17.65;4.45;;;;;;;21.14;59.60;101079.25;4951601;29;20408;-66
2021/08/04 08:48:48;;;;;;;18.63;5.28;;;;;;;21.13;59.78;101073.09;4952453;29;20477;-69
2021/08/04 08:51:19;;;;;;;16.23;5.03;;;;;;;21.16;59.56;101082.59;4952152;29;20034;-66
2021/08/04 08:53:46;;;;;;;9.27;3.90;;;;;;;21.15;59.31;101068.41;4951678;29;20031;-65
2021/08/04 08:56:14;;;;;;;11.18;3.83;;;;;;;21.15;58.96;101071.09;4950647;29;20397;-67
2021/08/04 08:58:41;;;;;;;14.07;4.88;;;;;;;21.14;59.08;101064.06;4952397;29;20397;-65
2021/08/04 09:01:07;;;;;;;11.25;3.92;;;;;;;21.15;58.94;101071.09;4944628;29;20144;-65
2021/08/04 09:03:32;;;;;;;8.13;4.70;;;;;;;21.16;58.79;101069.25;4951839;29;20110;-65
2021/08/04 09:06:02;;;;;;;6.38;3.72;;;;;;;21.15;58.57;101064.94;4934981;29;20110;-66
2021/08/04 09:08:31;;;;;;;10.95;4.32;;;;;;;21.16;58.72;101066.56;4950667;29;20105;-66
2021/08/04 09:11:08;;;;;;;8.52;4.38;;;;;;;21.14;58.33;101057.91;4951956;29;20430;-65
2021/08/04 09:13:35;;;;;;;11.45;4.10;;;;;;;21.13;58.52;101054.44;4952176;29;20118;-65
2021/08/04 09:16:09;;;;;;;8.18;4.15;;;;;;;21.11;58.16;101056.47;4952134;29;20036;-66
2021/08/04 09:18:48;;;;;;;10.80;4.28;;;;;;;21.12;58.51;101054.63;4951497;29;20058;-66
2021/08/04 09:21:16;;;;;;;9.90;4.25;;;;;;;21.14;58.43;101052.59;4951570;28;20039;-66
2021/08/04 09:23:48;;;;;;;7.80;3.63;;;;;;;21.12;58.45;101055.47;4934032;29;20035;-67
2021/08/04 09:26:19;;;;;;;10.13;4.35;;;;;;;21.12;58.37;101051.97;4951565;28;20051;-66
2021/08/04 09:29:00;;;;;;;7.45;3.70;;;;;;;21.10;58.14;101052.19;4951492;29;20035;-65
2021/08/04 09:31:38;;;;;;;5.68;3.75;;;;;;;21.10;58.27;101046.84;4951819;29;20113;-65
2021/08/04 09:34:04;;;;;;;7.47;3.90;;;;;;;21.12;58.42;101050.13;4950877;29;20039;-66
2021/08/04 09:36:29;;;;;;;5.82;3.90;;;;;;;21.13;58.25;101059.78;4951870;29;20041;-65
2021/08/04 09:39:04;;;;;;;7.03;3.50;;;;;;;21.11;58.29;101061.00;4950618;29;20031;-65
2021/08/04 09:41:30;;;;;;;5.72;3.65;;;;;;;21.13;58.19;101061.63;4950945;29;20035;-66
2021/08/04 09:44:06;;;;;;;6.43;3.50;;;;;;;21.11;57.61;101064.47;4951235;29;20035;-65
2021/08/04 09:46:32;;;;;;;7.30;4.18;;;;;;;21.12;57.84;101051.97;4951573;29;20047;-66
2021/08/04 09:49:12;;;;;;;5.93;3.75;;;;;;;21.08;57.67;101043.56;4951874;29;20039;-66
2021/08/04 09:51:38;;;;;;;6.70;3.65;;;;;;;21.11;57.60;101042.31;4940368;29;20035;-65
2021/08/04 09:54:08;;;;;;;7.22;3.63;;;;;;;21.10;57.49;101046.03;4918495;29;20142;-65
2021/08/04 09:56:47;;;;;;;6.82;3.92;;;;;;;21.08;57.38;101042.72;4952195;29;20035;-66
2021/08/04 09:59:12;;;;;;;5.50;3.88;;;;;;;21.12;57.56;101049.31;4951318;29;20150;-66
2021/08/04 10:01:40;;;;;;;4.78;3.50;;;;;;;21.12;57.51;101038.63;4945535;29;20555;-66
2021/08/04 10:04:08;;;;;;;7.15;3.38;;;;;;;21.12;57.48;101042.13;4951598;29;20038;-66
2021/08/04 10:06:38;;;;;;;9.20;3.80;;;;;;;21.12;57.43;101044.78;4951012;29;20028;-65
2021/08/04 10:09:06;;;;;;;6.43;3.67;;;;;;;21.13;57.34;101034.94;4951269;29;20058;-68
2021/08/04 10:11:33;;;;;;;5.70;3.35;;;;;;;21.14;57.35;101028.56;4950906;29;20027;-67
2021/08/04 10:13:59;;;;;;;6.05;3.78;;;;;;;21.13;57.46;101029.59;4951339;29;20039;-66
2021/08/04 10:16:30;;;;;;;6.20;3.92;;;;;;;21.11;57.49;101031.66;4933717;29;20031;-66
2021/08/04 10:18:57;;;;;;;6.30;3.83;;;;;;;21.12;57.67;101028.78;4951264;29;20074;-65
2021/08/04 10:21:23;;;;;;;6.03;3.50;;;;;;;21.12;57.09;101025.28;4950926;29;20046;-65
2021/08/04 10:23:51;;;;;;;4.30;3.50;;;;;;;21.11;57.08;101031.66;4950627;29;20058;-66
2021/08/04 10:26:17;;;;;;;8.60;3.67;;;;;;;21.09;57.08;101029.19;4950620;28;20385;-65
2021/08/04 10:28:44;;;;;;;4.93;3.58;;;;;;;21.07;57.28;101025.91;4950678;29;20050;-65
2021/08/04 10:31:10;;;;;;;6.25;3.55;;;;;;;21.08;56.88;101024.06;4934281;29;20054;-70
2021/08/04 10:33:40;;;;;;;5.35;4.15;;;;;;;21.05;57.23;101011.97;4954168;29;20114;-65
2021/08/04 10:36:09;;;;;;;7.38;3.78;;;;;;;21.05;57.30;101011.97;4954754;29;20039;-66
2021/08/04 10:38:39;;;;;;;6.60;4.13;;;;;;;21.06;56.92;101018.13;4952969;29;20024;-65
2021/08/04 10:41:20;;;;;;;5.90;3.47;;;;;;;21.04;56.83;101014.81;4952470;29;20050;-65
2021/08/04 10:43:53;;;;;;;5.72;3.03;;;;;;;21.03;56.90;101006.00;4952024;29;20062;-67
2021/08/04 10:46:27;;;;;;;6.20;3.30;;;;;;;21.02;57.17;101006.22;4928675;29;20094;-66
2021/08/04 10:48:54;;;;;;;5.55;3.50;;;;;;;21.04;56.92;101010.31;4951774;29;20034;-66
2021/08/04 10:51:20;;;;;;;7.75;3.40;;;;;;;21.06;56.94;101007.44;4933913;29;20039;-68
2021/08/04 10:54:01;;;;;;;4.82;3.60;;;;;;;21.03;57.04;101010.50;4950272;29;20177;-67
2021/08/04 10:56:32;;;;;;;4.80;3.33;;;;;;;21.05;56.97;101009.28;4933128;29;20630;-66
2021/08/04 10:59:13;;;;;;;5.70;3.40;;;;;;;21.05;56.79;101016.47;4951602;29;20061;-67
2021/08/04 11:01:42;;;;;;;5.30;3.47;;;;;;;21.06;56.71;101013.59;4951956;29;20035;-68
2021/08/04 11:04:10;;;;;;;7.20;3.30;;;;;;;21.06;56.76;101002.09;4950738;29;20043;-66
2021/08/04 11:07:07;;;;;;;7.03;3.33;;;;;;;21.01;56.80;101001.91;4950447;29;20027;-64
2021/08/04 11:09:40;;;;;;;6.25;3.20;;;;;;;21.01;57.00;100996.56;4950826;29;20026;-66
2021/08/04 11:12:30;;;;;;;12.70;3.20;;;;;;;21.02;56.68;101004.38;4952860;29;20101;-65
2021/08/04 11:14:58;;;;;;;7.10;3.10;;;;;;;21.03;57.02;100992.66;4942141;29;20125;-64
2021/08/04 11:17:29;;;;;;;5.05;3.15;;;;;;;21.02;56.84;100988.34;4953850;29;20043;-65
2021/08/04 11:20:02;;;;;;;3.78;2.75;;;;;;;21.02;57.07;100979.53;4953159;29;20062;-64
2021/08/04 11:22:30;;;;;;;5.13;3.50;;;;;;;21.02;56.78;100977.69;4953628;29;20240;-67
2021/08/04 11:24:58;;;;;;;5.68;3.30;;;;;;;21.03;57.01;100975.84;4952038;29;20114;-66
2021/08/04 11:27:28;;;;;;;4.60;3.30;;;;;;;21.01;57.07;100981.38;4936374;29;20031;-67